createdAt,value
2023-04-16T00:02:41.939Z,68.62
2023-04-16T00:05:43.485Z,68.23
2023-04-16T00:08:44.921Z,68.64
2023-04-16T00:11:46.382Z,69.01
2023-04-16T00:14:49.102Z,68.32
2023-04-16T00:17:50.680Z,67.67
2023-04-16T00:20:52.134Z,67.87
2023-04-16T00:23:53.613Z,69.02
2023-04-16T00:26:55.916Z,69.10
2023-04-16T00:29:57.232Z,69.45
2023-04-16T00:32:58.789Z,70.06
2023-04-16T00:36:00.369Z,69.26
2023-04-16T00:39:02.031Z,68.68
2023-04-16T00:42:03.593Z,68.96
2023-04-16T00:45:05.872Z,69.36
2023-04-16T00:48:07.235Z,69.97
2023-04-16T00:51:09.067Z,70.25
2023-04-16T00:54:10.740Z,71.04
2023-04-16T00:57:14.438Z,70.99
2023-04-16T01:00:16.295Z,70.21
2023-04-16T01:03:17.876Z,68.86
2023-04-16T01:06:19.450Z,68.58
2023-04-16T01:09:20.913Z,68.42
2023-04-16T01:12:22.503Z,67.72
2023-04-16T01:15:23.977Z,68.79
2023-04-16T01:18:26.233Z,69.29
2023-04-16T01:21:27.565Z,69.10
2023-04-16T01:24:29.115Z,68.71
2023-04-16T01:27:31.173Z,68.54
2023-04-16T01:30:32.837Z,70.63
2023-04-16T01:33:44.564Z,71.17
2023-04-16T01:36:46.835Z,69.38
2023-04-16T01:39:48.262Z,69.81
2023-04-16T01:42:49.717Z,70.73
2023-04-16T01:45:53.773Z,71.29
2023-04-16T01:48:55.444Z,70.52
2023-04-16T01:51:56.919Z,70.72
2023-04-16T01:54:58.401Z,70.54
2023-04-16T01:57:59.820Z,70.91
2023-04-16T02:01:05.835Z,71.45
2023-04-16T02:04:08.208Z,71.88
2023-04-16T02:07:10.309Z,71.10
2023-04-16T02:10:11.752Z,71.06
2023-04-16T02:13:15.570Z,71.90
2023-04-16T02:16:18.538Z,71.91
2023-04-16T02:19:28.807Z,71.78
2023-04-16T02:22:30.514Z,71.53
2023-04-16T02:25:32.840Z,71.56
2023-04-16T02:28:34.378Z,70.28
2023-04-16T02:31:36.193Z,70.63
2023-04-16T02:34:40.105Z,71.50
2023-04-16T02:37:41.726Z,70.53
2023-04-16T02:40:43.810Z,70.30
2023-04-16T02:43:45.845Z,70.65
2023-04-16T02:46:47.275Z,71.07
2023-04-16T02:49:48.786Z,71.13
2023-04-16T02:52:51.472Z,70.74
2023-04-16T02:55:54.531Z,72.28
2023-04-16T02:58:56.306Z,71.39
2023-04-16T03:01:58.167Z,70.37
2023-04-16T03:04:59.824Z,71.39
2023-04-16T03:08:01.253Z,71.83
2023-04-16T03:11:02.718Z,70.75
2023-04-16T03:14:04.106Z,71.19
2023-04-16T03:17:05.697Z,71.71
2023-04-16T03:20:07.945Z,71.78
2023-04-16T03:23:09.474Z,72.23
2023-04-16T03:26:10.935Z,71.75
2023-04-16T03:29:12.478Z,71.30
2023-04-16T03:32:13.919Z,72.00
2023-04-16T03:35:15.850Z,71.98
2023-04-16T03:38:17.583Z,71.98
2023-04-16T03:41:19.518Z,72.44
2023-04-16T03:44:21.317Z,72.19
2023-04-16T03:47:22.819Z,72.18
2023-04-16T03:50:27.923Z,72.27
2023-04-16T03:53:29.827Z,71.75
2023-04-16T03:56:31.291Z,71.93
2023-04-16T03:59:32.742Z,72.31
2023-04-16T04:02:35.058Z,72.18
2023-04-16T04:05:41.081Z,72.29
2023-04-16T04:08:44.712Z,71.73
2023-04-16T04:11:48.265Z,72.29
2023-04-16T04:14:49.931Z,71.67
2023-04-16T04:17:51.442Z,71.59
2023-04-16T04:20:53.038Z,72.73
2023-04-16T04:23:58.351Z,72.41
2023-04-16T04:26:59.766Z,72.31
2023-04-16T04:30:04.241Z,72.52
2023-04-16T04:33:06.846Z,71.93
2023-04-16T04:36:08.347Z,71.64
2023-04-16T04:39:11.623Z,72.41
2023-04-16T04:42:18.952Z,72.35
2023-04-16T04:45:20.700Z,73.30
2023-04-16T04:48:26.445Z,73.18
2023-04-16T04:51:28.411Z,72.06
2023-04-16T04:54:30.945Z,72.13
2023-04-16T04:57:32.377Z,72.02
2023-04-16T05:00:34.856Z,71.70
2023-04-16T05:03:36.473Z,71.59
2023-04-16T05:06:37.947Z,72.01
2023-04-16T05:09:39.362Z,71.53
2023-04-16T05:12:40.908Z,70.82
2023-04-16T05:15:42.467Z,71.56
2023-04-16T05:18:43.882Z,71.79
2023-04-16T05:21:45.308Z,71.96
2023-04-16T05:24:46.724Z,71.12
2023-04-16T05:27:48.175Z,71.26
2023-04-16T05:30:49.627Z,70.84
2023-04-16T05:33:51.058Z,71.45
2023-04-16T05:36:52.432Z,72.61
2023-04-16T05:39:54.107Z,71.51
2023-04-16T05:42:55.582Z,72.20
2023-04-16T05:45:57.025Z,72.35
2023-04-16T05:48:58.481Z,71.46
2023-04-16T05:51:59.928Z,71.32
2023-04-16T05:55:01.806Z,70.72
2023-04-16T05:58:06.219Z,70.42
2023-04-16T06:01:07.654Z,70.21
2023-04-16T06:04:09.156Z,69.87
2023-04-16T06:07:10.746Z,69.50
2023-04-16T06:10:12.188Z,70.52
2023-04-16T06:13:13.725Z,70.96
2023-04-16T06:16:15.341Z,72.50
2023-04-16T06:19:16.862Z,73.42
2023-04-16T06:22:18.403Z,72.77
2023-04-16T06:25:19.823Z,72.34
2023-04-16T06:28:21.465Z,71.63
2023-04-16T06:31:22.999Z,71.85
2023-04-16T06:34:24.468Z,72.13
2023-04-16T06:37:25.879Z,72.88
2023-04-16T06:40:27.355Z,72.72
2023-04-16T06:43:29.817Z,72.77
2023-04-16T06:46:31.845Z,73.10
2023-04-16T06:49:33.306Z,72.90
2023-04-16T06:52:34.750Z,72.63
2023-04-16T06:55:36.242Z,72.84
2023-04-16T06:58:37.734Z,72.70
2023-04-16T07:01:39.229Z,71.75
2023-04-16T07:04:40.658Z,71.42
2023-04-16T07:07:42.056Z,70.79
2023-04-16T07:10:43.654Z,71.68
2023-04-16T07:13:45.163Z,71.50
2023-04-16T07:16:46.648Z,72.19
2023-04-16T07:19:48.140Z,72.91
2023-04-16T07:22:49.686Z,72.12
2023-04-16T07:25:51.203Z,72.52
2023-04-16T07:28:52.672Z,72.44
2023-04-16T07:31:54.160Z,72.01
2023-04-16T07:34:56.149Z,72.40
2023-04-16T07:37:57.610Z,72.10
2023-04-16T07:40:59.113Z,72.16
2023-04-16T07:44:00.605Z,72.56
2023-04-16T07:47:03.549Z,72.72
2023-04-16T07:50:08.038Z,72.69
2023-04-16T07:53:09.663Z,72.54
2023-04-16T07:56:11.364Z,71.78
2023-04-16T07:59:21.719Z,72.16
2023-04-16T08:02:24.818Z,72.29
2023-04-16T08:05:26.714Z,72.68
2023-04-16T08:08:29.027Z,72.90
2023-04-16T08:11:30.686Z,72.47
2023-04-16T08:14:32.111Z,72.21
2023-04-16T08:17:34.425Z,71.75
2023-04-16T08:20:35.883Z,71.62
2023-04-16T08:23:37.314Z,71.04
2023-04-16T08:26:38.798Z,70.58
2023-04-16T08:29:40.248Z,70.70
2023-04-16T08:32:42.353Z,71.11
2023-04-16T08:35:43.814Z,71.12
2023-04-16T08:38:45.398Z,70.63
2023-04-16T08:41:47.615Z,70.47
2023-04-16T08:44:50.292Z,70.42
2023-04-16T08:47:52.993Z,70.41
2023-04-16T08:50:55.029Z,70.78
2023-04-16T08:54:04.209Z,70.78
2023-04-16T08:57:06.508Z,70.53
2023-04-16T09:00:08.863Z,70.59
2023-04-16T09:03:11.170Z,70.82
2023-04-16T09:06:13.531Z,70.76
2023-04-16T09:09:16.074Z,71.23
2023-04-16T09:12:17.555Z,71.69
2023-04-16T09:15:20.547Z,71.25
2023-04-16T09:18:22.016Z,70.94
2023-04-16T09:21:24.095Z,70.74
2023-04-16T09:24:25.946Z,70.64
2023-04-16T09:27:28.160Z,70.67
2023-04-16T09:30:29.760Z,70.36
2023-04-16T09:33:32.378Z,70.39
2023-04-16T09:36:36.468Z,70.50
2023-04-16T09:39:37.999Z,70.50
2023-04-16T09:42:39.392Z,70.86
2023-04-16T09:45:54.281Z,70.56
2023-04-16T09:48:55.807Z,69.87
2023-04-16T09:51:59.613Z,69.29
2023-04-16T09:55:01.015Z,69.33
2023-04-16T09:58:02.474Z,69.28
2023-04-16T10:01:07.940Z,69.08
2023-04-16T10:04:09.463Z,68.54
2023-04-16T10:07:11.057Z,68.54
2023-04-16T10:10:12.791Z,67.75
2023-04-16T10:13:17.535Z,67.85
2023-04-16T10:16:19.094Z,67.15
2023-04-16T10:19:20.781Z,68.39
2023-04-16T10:22:22.289Z,66.85
2023-04-16T10:25:24.342Z,66.63
2023-04-16T10:28:25.972Z,66.52
2023-04-16T10:31:28.390Z,66.09
2023-04-16T10:34:31.244Z,65.72
2023-04-16T10:37:33.088Z,65.36
2023-04-16T10:40:35.129Z,64.68
2023-04-16T10:43:41.129Z,66.52
2023-04-16T10:46:44.550Z,65.27
2023-04-16T10:49:48.070Z,65.36
2023-04-16T10:52:49.478Z,64.85
2023-04-16T10:55:58.542Z,65.12
2023-04-16T10:59:00.292Z,64.77
2023-04-16T11:02:07.456Z,65.38
2023-04-16T11:05:09.604Z,65.64
2023-04-16T11:08:14.547Z,66.38
2023-04-16T11:11:16.368Z,65.88
2023-04-16T11:14:18.132Z,63.85
2023-04-16T11:17:21.178Z,63.62
2023-04-16T11:20:24.866Z,65.15
2023-04-16T11:23:26.359Z,63.64
2023-04-16T11:26:29.468Z,64.38
2023-04-16T11:29:31.001Z,64.06
2023-04-16T11:32:33.886Z,63.48
2023-04-16T11:35:35.680Z,63.25
2023-04-16T11:38:38.284Z,62.59
2023-04-16T11:41:47.493Z,61.72
2023-04-16T11:44:56.503Z,61.45
2023-04-16T11:47:58.039Z,61.85
2023-04-16T11:50:59.621Z,62.33
2023-04-16T11:54:02.030Z,61.39
2023-04-16T11:57:04.556Z,62.13
2023-04-16T12:00:10.673Z,61.86
2023-04-16T12:03:15.458Z,61.75
2023-04-16T12:06:17.006Z,61.88
2023-04-16T12:09:26.200Z,61.53
2023-04-16T12:12:32.258Z,60.95
2023-04-16T12:15:53.343Z,61.48
2023-04-16T12:19:03.805Z,61.13
2023-04-16T12:22:05.331Z,61.94
2023-04-16T12:25:15.424Z,61.73
2023-04-16T12:28:28.619Z,60.29
2023-04-16T12:31:38.949Z,61.19
2023-04-16T12:34:51.538Z,61.15
2023-04-16T12:37:52.966Z,60.40
2023-04-16T12:40:57.104Z,61.55
2023-04-16T12:44:05.018Z,60.85
2023-04-16T12:47:06.607Z,60.41
2023-04-16T12:50:08.268Z,61.85
2023-04-16T12:53:09.712Z,61.26
2023-04-16T12:56:11.187Z,61.14
2023-04-16T12:59:12.736Z,61.71
2023-04-16T13:02:14.344Z,62.40
2023-04-16T13:05:17.157Z,60.98
2023-04-16T13:08:18.596Z,61.82
2023-04-16T13:11:20.497Z,63.23
2023-04-16T13:14:22.052Z,62.41
2023-04-16T13:17:23.619Z,62.60
2023-04-16T13:20:25.261Z,63.63
2023-04-16T13:23:27.008Z,62.79
2023-04-16T13:26:28.465Z,63.11
2023-04-16T13:29:30.081Z,63.60
2023-04-16T13:32:31.827Z,63.96
2023-04-16T13:35:33.264Z,64.43
2023-04-16T13:38:34.662Z,65.68
2023-04-16T13:41:37.044Z,66.55
2023-04-16T13:44:38.549Z,66.00
2023-04-16T13:47:43.653Z,65.57
2023-04-16T13:50:45.448Z,65.23
2023-04-16T13:53:46.953Z,65.18
2023-04-16T13:56:50.165Z,65.32
2023-04-16T13:59:51.722Z,65.13
2023-04-16T14:02:53.858Z,65.39
2023-04-16T14:05:55.364Z,64.85
2023-04-16T14:08:56.794Z,63.82
2023-04-16T14:11:58.218Z,65.00
2023-04-16T14:14:59.767Z,64.79
2023-04-16T14:18:01.784Z,64.75
2023-04-16T14:21:03.541Z,63.94
2023-04-16T14:24:05.452Z,63.21
2023-04-16T14:27:06.917Z,63.31
2023-04-16T14:30:08.919Z,63.63
2023-04-16T14:33:10.563Z,63.35
2023-04-16T14:36:12.052Z,64.74
2023-04-16T14:39:13.753Z,63.18
2023-04-16T14:42:15.391Z,63.05
2023-04-16T14:45:16.832Z,64.75
2023-04-16T14:48:18.298Z,63.75
2023-04-16T14:51:19.799Z,63.53
2023-04-16T14:54:21.397Z,64.83
2023-04-16T14:57:23.027Z,63.95
2023-04-16T15:00:24.508Z,63.48
2023-04-16T15:03:26.676Z,63.55
2023-04-16T15:06:28.464Z,63.56
2023-04-16T15:09:29.929Z,63.93
2023-04-16T15:12:31.367Z,63.79
2023-04-16T15:15:32.765Z,63.77
2023-04-16T15:18:34.308Z,63.77
2023-04-16T15:21:35.734Z,63.55
2023-04-16T15:24:37.185Z,63.89
2023-04-16T15:27:38.698Z,62.88
2023-04-16T15:30:41.312Z,64.00
2023-04-16T15:33:42.888Z,63.46
2023-04-16T15:36:44.400Z,63.07
2023-04-16T15:39:46.234Z,63.86
2023-04-16T15:42:48.068Z,63.48
2023-04-16T15:45:49.552Z,62.93
2023-04-16T15:48:51.031Z,63.43
2023-04-16T15:51:53.054Z,63.35
2023-04-16T15:54:54.887Z,63.39
2023-04-16T15:57:56.365Z,63.43
2023-04-16T16:00:57.828Z,63.71
2023-04-16T16:03:59.481Z,64.85
2023-04-16T16:07:02.747Z,66.82
2023-04-16T16:10:05.937Z,68.50
2023-04-16T16:13:12.033Z,70.47
2023-04-16T16:16:14.675Z,69.59
2023-04-16T16:19:18.603Z,69.74
2023-04-16T16:22:20.630Z,69.92
2023-04-16T16:25:22.198Z,70.58
2023-04-16T16:28:24.968Z,70.97
2023-04-16T16:31:26.540Z,71.64
2023-04-16T16:34:28.237Z,71.70
2023-04-16T16:37:29.651Z,71.54
2023-04-16T16:40:31.136Z,71.48
2023-04-16T16:43:32.875Z,71.74
2023-04-16T16:46:34.654Z,71.30
2023-04-16T16:49:36.112Z,71.18
2023-04-16T16:52:38.291Z,71.27
2023-04-16T16:55:39.711Z,71.00
2023-04-16T16:58:41.696Z,71.26
2023-04-16T17:01:43.152Z,71.23
2023-04-16T17:04:44.842Z,71.64
2023-04-16T17:07:46.658Z,72.22
2023-04-16T17:10:48.230Z,71.45
2023-04-16T17:13:49.727Z,71.63
2023-04-16T17:16:51.272Z,72.05
2023-04-16T17:19:52.836Z,72.09
2023-04-16T17:22:54.251Z,72.07
2023-04-16T17:25:55.826Z,72.68
2023-04-16T17:28:59.170Z,73.01
2023-04-16T17:32:00.894Z,72.38
2023-04-16T17:35:04.176Z,72.40
2023-04-16T17:38:05.909Z,72.47
2023-04-16T17:41:07.355Z,72.97
2023-04-16T17:44:11.129Z,72.42
2023-04-16T17:47:13.250Z,72.41
2023-04-16T17:50:14.906Z,72.82
2023-04-16T17:53:16.613Z,72.80
2023-04-16T17:56:18.020Z,72.93
2023-04-16T17:59:19.555Z,72.98
2023-04-16T18:02:21.150Z,72.10
2023-04-16T18:05:22.741Z,72.16
2023-04-16T18:08:25.113Z,72.64
2023-04-16T18:11:27.491Z,72.61
2023-04-16T18:14:30.039Z,72.65
2023-04-16T18:17:31.528Z,72.22
2023-04-16T18:20:33.425Z,73.20
2023-04-16T18:23:34.828Z,73.51
2023-04-16T18:26:36.484Z,74.51
2023-04-16T18:29:39.864Z,74.06
2023-04-16T18:32:58.920Z,73.49
2023-04-16T18:36:03.741Z,72.76
2023-04-16T18:39:05.862Z,72.38
2023-04-16T18:42:07.800Z,73.16
2023-04-16T18:45:13.657Z,72.93
2023-04-16T18:48:16.129Z,73.10
2023-04-16T18:51:17.583Z,72.15
2023-04-16T18:54:20.307Z,71.72
2023-04-16T18:57:21.723Z,71.84
2023-04-16T19:00:23.263Z,72.17
2023-04-16T19:03:27.019Z,73.11
2023-04-16T19:06:29.144Z,73.47
2023-04-16T19:09:30.871Z,73.14
2023-04-16T19:12:32.529Z,72.54
2023-04-16T19:15:34.864Z,72.36
2023-04-16T19:18:37.546Z,73.45
2023-04-16T19:21:38.976Z,72.83
2023-04-16T19:24:40.637Z,72.20
2023-04-16T19:27:42.132Z,72.86
2023-04-16T19:30:46.434Z,73.83
2023-04-16T19:33:47.880Z,74.22
2023-04-16T19:36:49.295Z,74.93
2023-04-16T19:39:50.798Z,74.75
2023-04-16T19:42:52.322Z,75.20
2023-04-16T19:45:54.243Z,75.57
2023-04-16T19:48:56.595Z,75.68
2023-04-16T19:51:57.946Z,75.29
2023-04-16T19:54:59.440Z,75.02
2023-04-16T19:58:05.901Z,75.36
2023-04-16T20:01:11.355Z,75.26
2023-04-16T20:04:12.855Z,75.15
2023-04-16T20:07:14.278Z,74.69
2023-04-16T20:10:15.825Z,73.71
2023-04-16T20:13:18.594Z,74.03
2023-04-16T20:16:23.810Z,74.38
2023-04-16T20:19:29.936Z,74.82
2023-04-16T20:22:31.372Z,74.59
2023-04-16T20:25:32.800Z,75.34
2023-04-16T20:28:34.327Z,75.79
2023-04-16T20:31:35.745Z,75.52
2023-04-16T20:34:38.180Z,74.97
2023-04-16T20:37:41.793Z,74.85
2023-04-16T20:40:44.999Z,75.16
2023-04-16T20:43:49.969Z,75.07
2023-04-16T20:46:54.878Z,75.61
2023-04-16T20:49:56.501Z,75.40
2023-04-16T20:52:57.970Z,75.13
2023-04-16T20:56:02.965Z,74.47
2023-04-16T20:59:04.469Z,74.73
2023-04-16T21:02:06.172Z,74.82
2023-04-16T21:05:10.383Z,74.75
2023-04-16T21:08:11.808Z,74.33
2023-04-16T21:11:13.293Z,74.54
2023-04-16T21:14:14.727Z,74.39
2023-04-16T21:17:16.305Z,73.83
2023-04-16T21:20:17.778Z,73.84
2023-04-16T21:23:19.211Z,74.04
2023-04-16T21:26:20.865Z,74.05
2023-04-16T21:29:23.469Z,73.94
2023-04-16T21:32:24.956Z,74.18
2023-04-16T21:35:26.646Z,74.49
2023-04-16T21:38:28.172Z,73.83
2023-04-16T21:41:29.625Z,74.32
2023-04-16T21:44:31.187Z,75.05
2023-04-16T21:47:32.677Z,75.66
2023-04-16T21:50:34.108Z,76.72
2023-04-16T21:53:36.778Z,75.67
2023-04-16T21:56:38.773Z,74.98
2023-04-16T21:59:40.313Z,74.20
2023-04-16T22:02:42.723Z,74.28
2023-04-16T22:05:45.829Z,74.18
2023-04-16T22:08:49.632Z,74.40
2023-04-16T22:11:52.372Z,74.05
2023-04-16T22:15:02.403Z,74.51
2023-04-16T22:18:04.514Z,74.40
2023-04-16T22:21:06.020Z,73.92
2023-04-16T22:24:07.544Z,73.67
2023-04-16T22:27:08.988Z,73.78
2023-04-16T22:30:10.884Z,73.72
2023-04-16T22:33:12.461Z,73.68
2023-04-16T22:36:13.906Z,73.91
2023-04-16T22:39:15.510Z,73.47
2023-04-16T22:42:17.208Z,73.47
2023-04-16T22:45:18.741Z,73.36
2023-04-16T22:48:20.159Z,73.13
2023-04-16T22:51:24.265Z,73.05
2023-04-16T22:54:29.785Z,73.56
2023-04-16T22:57:31.227Z,73.71
2023-04-16T23:00:32.910Z,75.62
2023-04-16T23:03:34.499Z,75.55
2023-04-16T23:06:36.145Z,76.78
2023-04-16T23:09:37.535Z,77.36
2023-04-16T23:12:39.101Z,77.07
2023-04-16T23:15:40.716Z,76.01
2023-04-16T23:18:42.224Z,75.58
2023-04-16T23:21:43.627Z,75.14
2023-04-16T23:24:45.749Z,75.08
2023-04-16T23:27:47.193Z,74.66
2023-04-16T23:30:52.728Z,73.96
2023-04-16T23:33:54.307Z,73.78
2023-04-16T23:36:55.766Z,74.17
2023-04-16T23:39:57.199Z,74.28
2023-04-16T23:42:58.791Z,74.31
2023-04-16T23:46:00.353Z,73.74
2023-04-16T23:49:01.909Z,73.91
2023-04-16T23:52:03.561Z,73.73
2023-04-16T23:55:05.326Z,73.81
2023-04-16T23:58:06.747Z,74.19
